sensor_id;sensor_type;location;lat;lon;timestamp;temperature;humidity
38118;DHT22;23928;47.562;7.508;2022-07-22T00:02:23;20.00;99.90
38118;DHT22;23928;47.562;7.508;2022-07-22T00:04:49;20.00;99.90
38118;DHT22;23928;47.562;7.508;2022-07-22T00:07:15;20.20;99.90
38118;DHT22;23928;47.562;7.508;2022-07-22T00:09:41;20.10;99.90
38118;DHT22;23928;47.562;7.508;2022-07-22T00:12:07;20.10;99.90
38118;DHT22;23928;47.562;7.508;2022-07-22T00:14:33;20.00;99.90
38118;DHT22;23928;47.562;7.508;2022-07-22T00:16:58;20.10;99.90
38118;DHT22;23928;47.562;7.508;2022-07-22T00:19:24;20.20;99.90
38118;DHT22;23928;47.562;7.508;2022-07-22T00:21:51;19.80;99.90
38118;DHT22;23928;47.562;7.508;2022-07-22T00:24:17;20.00;99.90
38118;DHT22;23928;47.562;7.508;2022-07-22T00:26:43;19.90;99.90
38118;DHT22;23928;47.562;7.508;2022-07-22T00:29:08;19.70;99.90
38118;DHT22;23928;47.562;7.508;2022-07-22T00:31:34;19.60;99.90
38118;DHT22;23928;47.562;7.508;2022-07-22T00:34:00;19.40;99.90
38118;DHT22;23928;47.562;7.508;2022-07-22T00:36:28;19.30;99.90
38118;DHT22;23928;47.562;7.508;2022-07-22T00:38:53;19.30;99.90
38118;DHT22;23928;47.562;7.508;2022-07-22T00:41:19;19.30;99.90
38118;DHT22;23928;47.562;7.508;2022-07-22T00:43:50;19.50;99.90
38118;DHT22;23928;47.562;7.508;2022-07-22T00:46:16;19.60;99.90
38118;DHT22;23928;47.562;7.508;2022-07-22T00:48:41;19.30;99.90
38118;DHT22;23928;47.562;7.508;2022-07-22T00:51:07;19.00;99.90
38118;DHT22;23928;47.562;7.508;2022-07-22T00:53:33;19.20;99.90
38118;DHT22;23928;47.562;7.508;2022-07-22T00:55:58;19.20;99.90
38118;DHT22;23928;47.562;7.508;2022-07-22T00:58:24;19.20;99.90
38118;DHT22;23928;47.562;7.508;2022-07-22T01:00:50;19.30;99.90
38118;DHT22;23928;47.562;7.508;2022-07-22T01:03:15;19.10;99.90
38118;DHT22;23928;47.562;7.508;2022-07-22T01:05:42;19.00;99.90
38118;DHT22;23928;47.562;7.508;2022-07-22T01:08:08;19.00;99.90
38118;DHT22;23928;47.562;7.508;2022-07-22T01:10:34;19.10;99.90
38118;DHT22;23928;47.562;7.508;2022-07-22T01:12:59;19.00;99.90
38118;DHT22;23928;47.562;7.508;2022-07-22T01:15:25;18.90;99.90
38118;DHT22;23928;47.562;7.508;2022-07-22T01:17:51;18.90;99.90
38118;DHT22;23928;47.562;7.508;2022-07-22T01:20:17;19.40;99.90
38118;DHT22;23928;47.562;7.508;2022-07-22T01:22:42;19.30;99.90
38118;DHT22;23928;47.562;7.508;2022-07-22T01:25:11;19.60;99.90
38118;DHT22;23928;47.562;7.508;2022-07-22T01:27:37;19.80;99.90
38118;DHT22;23928;47.562;7.508;2022-07-22T01:30:04;19.50;99.90
38118;DHT22;23928;47.562;7.508;2022-07-22T01:32:30;19.20;99.90
38118;DHT22;23928;47.562;7.508;2022-07-22T01:34:56;18.70;99.90
38118;DHT22;23928;47.562;7.508;2022-07-22T01:37:22;18.80;99.90
38118;DHT22;23928;47.562;7.508;2022-07-22T01:39:48;18.90;99.90
38118;DHT22;23928;47.562;7.508;2022-07-22T01:42:14;19.00;99.90
38118;DHT22;23928;47.562;7.508;2022-07-22T01:44:40;19.10;99.90
38118;DHT22;23928;47.562;7.508;2022-07-22T01:47:06;19.40;99.90
38118;DHT22;23928;47.562;7.508;2022-07-22T01:49:32;19.60;99.90
38118;DHT22;23928;47.562;7.508;2022-07-22T01:52:00;19.30;99.90
38118;DHT22;23928;47.562;7.508;2022-07-22T01:54:26;19.20;99.90
38118;DHT22;23928;47.562;7.508;2022-07-22T01:56:51;19.40;99.90
38118;DHT22;23928;47.562;7.508;2022-07-22T01:59:17;19.20;99.90
38118;DHT22;23928;47.562;7.508;2022-07-22T02:01:42;18.80;99.90
38118;DHT22;23928;47.562;7.508;2022-07-22T02:04:08;18.60;99.90
38118;DHT22;23928;47.562;7.508;2022-07-22T02:06:33;18.50;99.90
38118;DHT22;23928;47.562;7.508;2022-07-22T02:08:59;18.60;99.90
38118;DHT22;23928;47.562;7.508;2022-07-22T02:11:25;18.50;99.90
38118;DHT22;23928;47.562;7.508;2022-07-22T02:13:50;18.40;99.90
38118;DHT22;23928;47.562;7.508;2022-07-22T02:16:16;18.40;99.90
38118;DHT22;23928;47.562;7.508;2022-07-22T02:18:42;18.30;99.90
38118;DHT22;23928;47.562;7.508;2022-07-22T02:21:07;18.60;99.90
38118;DHT22;23928;47.562;7.508;2022-07-22T02:23:33;18.50;99.90
38118;DHT22;23928;47.562;7.508;2022-07-22T02:25:58;18.60;99.90
38118;DHT22;23928;47.562;7.508;2022-07-22T02:28:24;18.40;99.90
38118;DHT22;23928;47.562;7.508;2022-07-22T02:30:50;18.40;99.90
38118;DHT22;23928;47.562;7.508;2022-07-22T02:33:15;18.50;99.90
38118;DHT22;23928;47.562;7.508;2022-07-22T02:35:41;18.60;99.90
38118;DHT22;23928;47.562;7.508;2022-07-22T02:38:07;18.50;99.90
38118;DHT22;23928;47.562;7.508;2022-07-22T02:40:32;18.30;99.90
38118;DHT22;23928;47.562;7.508;2022-07-22T02:42:58;18.10;99.90
38118;DHT22;23928;47.562;7.508;2022-07-22T02:45:24;18.20;99.90
38118;DHT22;23928;47.562;7.508;2022-07-22T02:47:55;18.20;99.90
38118;DHT22;23928;47.562;7.508;2022-07-22T02:50:21;18.10;99.90
38118;DHT22;23928;47.562;7.508;2022-07-22T02:52:48;18.00;99.90
38118;DHT22;23928;47.562;7.508;2022-07-22T02:55:14;18.00;99.90
38118;DHT22;23928;47.562;7.508;2022-07-22T02:57:40;18.40;99.90
38118;DHT22;23928;47.562;7.508;2022-07-22T03:00:10;18.70;99.90
38118;DHT22;23928;47.562;7.508;2022-07-22T03:02:37;18.70;99.90
38118;DHT22;23928;47.562;7.508;2022-07-22T03:05:04;18.40;99.90
38118;DHT22;23928;47.562;7.508;2022-07-22T03:07:30;18.10;99.90
38118;DHT22;23928;47.562;7.508;2022-07-22T03:09:56;18.20;99.90
38118;DHT22;23928;47.562;7.508;2022-07-22T03:12:22;18.20;99.90
38118;DHT22;23928;47.562;7.508;2022-07-22T03:14:47;18.30;99.90
38118;DHT22;23928;47.562;7.508;2022-07-22T03:17:13;18.50;99.90
38118;DHT22;23928;47.562;7.508;2022-07-22T03:19:38;18.20;99.90
38118;DHT22;23928;47.562;7.508;2022-07-22T03:22:04;18.10;99.90
38118;DHT22;23928;47.562;7.508;2022-07-22T03:24:30;18.00;99.90
38118;DHT22;23928;47.562;7.508;2022-07-22T03:26:55;17.70;99.90
38118;DHT22;23928;47.562;7.508;2022-07-22T03:29:21;17.70;99.90
38118;DHT22;23928;47.562;7.508;2022-07-22T03:31:46;18.10;99.90
38118;DHT22;23928;47.562;7.508;2022-07-22T03:34:12;18.40;99.90
38118;DHT22;23928;47.562;7.508;2022-07-22T03:36:38;18.20;99.90
38118;DHT22;23928;47.562;7.508;2022-07-22T03:39:03;18.00;99.90
38118;DHT22;23928;47.562;7.508;2022-07-22T03:41:29;18.30;99.90
38118;DHT22;23928;47.562;7.508;2022-07-22T03:43:55;18.50;99.90
38118;DHT22;23928;47.562;7.508;2022-07-22T03:46:20;18.70;99.90
38118;DHT22;23928;47.562;7.508;2022-07-22T03:48:46;18.80;99.90
38118;DHT22;23928;47.562;7.508;2022-07-22T03:51:12;18.90;99.90
38118;DHT22;23928;47.562;7.508;2022-07-22T03:53:37;18.90;99.90
38118;DHT22;23928;47.562;7.508;2022-07-22T03:56:03;18.90;99.90
38118;DHT22;23928;47.562;7.508;2022-07-22T03:58:29;18.80;99.90
38118;DHT22;23928;47.562;7.508;2022-07-22T04:00:55;18.70;99.90
38118;DHT22;23928;47.562;7.508;2022-07-22T04:03:21;18.80;99.90
38118;DHT22;23928;47.562;7.508;2022-07-22T04:05:47;18.80;99.90
38118;DHT22;23928;47.562;7.508;2022-07-22T04:08:13;18.80;99.90
38118;DHT22;23928;47.562;7.508;2022-07-22T04:10:39;18.90;99.90
38118;DHT22;23928;47.562;7.508;2022-07-22T04:13:05;18.80;99.90
38118;DHT22;23928;47.562;7.508;2022-07-22T04:15:30;18.60;99.90
38118;DHT22;23928;47.562;7.508;2022-07-22T04:17:56;18.20;99.90
38118;DHT22;23928;47.562;7.508;2022-07-22T04:20:22;18.00;99.90
38118;DHT22;23928;47.562;7.508;2022-07-22T04:22:47;17.70;99.90
38118;DHT22;23928;47.562;7.508;2022-07-22T04:25:13;17.60;99.90
38118;DHT22;23928;47.562;7.508;2022-07-22T04:27:39;17.50;99.90
38118;DHT22;23928;47.562;7.508;2022-07-22T04:30:06;17.50;99.90
38118;DHT22;23928;47.562;7.508;2022-07-22T04:32:32;17.50;99.90
38118;DHT22;23928;47.562;7.508;2022-07-22T04:34:57;17.50;99.90
38118;DHT22;23928;47.562;7.508;2022-07-22T04:37:23;17.50;99.90
38118;DHT22;23928;47.562;7.508;2022-07-22T04:39:48;17.50;99.90
38118;DHT22;23928;47.562;7.508;2022-07-22T04:42:14;17.60;99.90
38118;DHT22;23928;47.562;7.508;2022-07-22T04:44:39;17.70;99.90
38118;DHT22;23928;47.562;7.508;2022-07-22T04:47:05;17.70;99.90
38118;DHT22;23928;47.562;7.508;2022-07-22T04:49:31;17.70;99.90
38118;DHT22;23928;47.562;7.508;2022-07-22T04:51:56;17.70;99.90
38118;DHT22;23928;47.562;7.508;2022-07-22T04:54:22;17.80;99.90
38118;DHT22;23928;47.562;7.508;2022-07-22T04:56:47;17.90;99.90
38118;DHT22;23928;47.562;7.508;2022-07-22T04:59:13;17.90;99.90
38118;DHT22;23928;47.562;7.508;2022-07-22T05:01:39;18.00;99.90
38118;DHT22;23928;47.562;7.508;2022-07-22T05:04:04;18.10;99.90
38118;DHT22;23928;47.562;7.508;2022-07-22T05:06:30;18.30;99.90
38118;DHT22;23928;47.562;7.508;2022-07-22T05:08:55;18.40;99.90
38118;DHT22;23928;47.562;7.508;2022-07-22T05:11:21;18.40;99.90
38118;DHT22;23928;47.562;7.508;2022-07-22T05:13:47;18.50;99.90
38118;DHT22;23928;47.562;7.508;2022-07-22T05:16:13;18.60;99.90
38118;DHT22;23928;47.562;7.508;2022-07-22T05:18:39;18.70;99.90
38118;DHT22;23928;47.562;7.508;2022-07-22T05:21:05;18.80;99.90
38118;DHT22;23928;47.562;7.508;2022-07-22T05:23:30;18.90;99.90
38118;DHT22;23928;47.562;7.508;2022-07-22T05:25:57;19.00;99.90
38118;DHT22;23928;47.562;7.508;2022-07-22T05:28:22;19.10;99.90
38118;DHT22;23928;47.562;7.508;2022-07-22T05:30:48;19.40;99.90
38118;DHT22;23928;47.562;7.508;2022-07-22T05:33:14;19.70;99.90
38118;DHT22;23928;47.562;7.508;2022-07-22T05:35:40;19.80;99.90
38118;DHT22;23928;47.562;7.508;2022-07-22T05:38:05;19.90;99.90
38118;DHT22;23928;47.562;7.508;2022-07-22T05:40:31;19.90;99.90
38118;DHT22;23928;47.562;7.508;2022-07-22T05:42:58;19.80;99.90
38118;DHT22;23928;47.562;7.508;2022-07-22T05:45:23;19.70;99.90
38118;DHT22;23928;47.562;7.508;2022-07-22T05:47:49;19.40;99.90
38118;DHT22;23928;47.562;7.508;2022-07-22T05:50:15;19.40;99.90
38118;DHT22;23928;47.562;7.508;2022-07-22T05:52:40;19.30;99.90
38118;DHT22;23928;47.562;7.508;2022-07-22T05:55:07;19.30;99.90
38118;DHT22;23928;47.562;7.508;2022-07-22T05:57:33;19.30;99.90
38118;DHT22;23928;47.562;7.508;2022-07-22T05:59:58;19.40;99.90
38118;DHT22;23928;47.562;7.508;2022-07-22T06:02:24;19.30;99.90
38118;DHT22;23928;47.562;7.508;2022-07-22T06:04:50;19.40;99.90
38118;DHT22;23928;47.562;7.508;2022-07-22T06:07:15;19.30;99.90
38118;DHT22;23928;47.562;7.508;2022-07-22T06:09:41;19.20;99.90
38118;DHT22;23928;47.562;7.508;2022-07-22T06:12:07;19.20;99.90
38118;DHT22;23928;47.562;7.508;2022-07-22T06:14:33;19.30;99.90
38118;DHT22;23928;47.562;7.508;2022-07-22T06:16:59;19.30;99.90
38118;DHT22;23928;47.562;7.508;2022-07-22T06:19:24;19.50;99.90
38118;DHT22;23928;47.562;7.508;2022-07-22T06:21:50;19.80;99.90
38118;DHT22;23928;47.562;7.508;2022-07-22T06:24:16;19.80;99.90
38118;DHT22;23928;47.562;7.508;2022-07-22T06:26:42;19.80;99.90
38118;DHT22;23928;47.562;7.508;2022-07-22T06:29:07;19.70;99.90
38118;DHT22;23928;47.562;7.508;2022-07-22T06:31:33;19.80;99.90
38118;DHT22;23928;47.562;7.508;2022-07-22T06:33:59;20.00;99.90
38118;DHT22;23928;47.562;7.508;2022-07-22T06:36:24;20.20;99.90
38118;DHT22;23928;47.562;7.508;2022-07-22T06:38:50;20.10;99.90
38118;DHT22;23928;47.562;7.508;2022-07-22T06:41:16;20.00;99.90
38118;DHT22;23928;47.562;7.508;2022-07-22T06:43:45;20.00;99.90
38118;DHT22;23928;47.562;7.508;2022-07-22T06:46:10;20.20;99.90
38118;DHT22;23928;47.562;7.508;2022-07-22T06:48:36;20.30;99.90
38118;DHT22;23928;47.562;7.508;2022-07-22T06:51:02;20.50;99.90
38118;DHT22;23928;47.562;7.508;2022-07-22T06:53:27;20.50;99.90
38118;DHT22;23928;47.562;7.508;2022-07-22T06:55:53;20.70;99.90
38118;DHT22;23928;47.562;7.508;2022-07-22T06:58:18;20.70;99.90
38118;DHT22;23928;47.562;7.508;2022-07-22T07:00:44;20.80;99.90
38118;DHT22;23928;47.562;7.508;2022-07-22T07:03:10;20.80;99.90
38118;DHT22;23928;47.562;7.508;2022-07-22T07:05:36;20.90;99.90
38118;DHT22;23928;47.562;7.508;2022-07-22T07:08:01;21.10;99.90
38118;DHT22;23928;47.562;7.508;2022-07-22T07:10:27;20.80;99.90
38118;DHT22;23928;47.562;7.508;2022-07-22T07:12:57;20.90;99.90
38118;DHT22;23928;47.562;7.508;2022-07-22T07:15:23;21.00;99.90
38118;DHT22;23928;47.562;7.508;2022-07-22T07:17:49;21.00;99.90
38118;DHT22;23928;47.562;7.508;2022-07-22T07:20:15;21.10;99.90
38118;DHT22;23928;47.562;7.508;2022-07-22T07:22:41;21.10;99.90
38118;DHT22;23928;47.562;7.508;2022-07-22T07:25:07;21.20;99.90
38118;DHT22;23928;47.562;7.508;2022-07-22T07:27:33;21.20;99.90
38118;DHT22;23928;47.562;7.508;2022-07-22T07:29:59;21.30;99.90
38118;DHT22;23928;47.562;7.508;2022-07-22T07:32:25;21.50;99.90
38118;DHT22;23928;47.562;7.508;2022-07-22T07:34:51;21.50;99.90
38118;DHT22;23928;47.562;7.508;2022-07-22T07:37:17;21.70;99.90
38118;DHT22;23928;47.562;7.508;2022-07-22T07:39:42;21.90;99.90
38118;DHT22;23928;47.562;7.508;2022-07-22T07:42:08;21.80;99.90
38118;DHT22;23928;47.562;7.508;2022-07-22T07:44:34;21.70;99.90
38118;DHT22;23928;47.562;7.508;2022-07-22T07:46:59;21.80;99.90
38118;DHT22;23928;47.562;7.508;2022-07-22T07:49:25;21.80;99.90
38118;DHT22;23928;47.562;7.508;2022-07-22T07:51:51;22.00;99.90
38118;DHT22;23928;47.562;7.508;2022-07-22T07:54:17;22.20;99.90
38118;DHT22;23928;47.562;7.508;2022-07-22T07:56:43;22.50;99.90
38118;DHT22;23928;47.562;7.508;2022-07-22T07:59:09;22.70;99.90
38118;DHT22;23928;47.562;7.508;2022-07-22T08:01:34;22.30;99.90
38118;DHT22;23928;47.562;7.508;2022-07-22T08:04:00;22.50;99.90
38118;DHT22;23928;47.562;7.508;2022-07-22T08:06:26;22.60;99.90
38118;DHT22;23928;47.562;7.508;2022-07-22T08:08:51;22.60;99.90
38118;DHT22;23928;47.562;7.508;2022-07-22T08:11:17;22.70;99.90
38118;DHT22;23928;47.562;7.508;2022-07-22T08:13:43;22.80;99.90
38118;DHT22;23928;47.562;7.508;2022-07-22T08:16:09;22.80;99.90
38118;DHT22;23928;47.562;7.508;2022-07-22T08:18:34;22.90;99.90
38118;DHT22;23928;47.562;7.508;2022-07-22T08:21:00;23.20;99.90
38118;DHT22;23928;47.562;7.508;2022-07-22T08:23:26;23.20;99.90
38118;DHT22;23928;47.562;7.508;2022-07-22T08:25:51;23.30;99.90
38118;DHT22;23928;47.562;7.508;2022-07-22T08:28:17;23.50;99.90
38118;DHT22;23928;47.562;7.508;2022-07-22T08:30:43;23.70;99.90
38118;DHT22;23928;47.562;7.508;2022-07-22T08:33:08;23.70;99.90
38118;DHT22;23928;47.562;7.508;2022-07-22T08:35:34;23.80;99.90
38118;DHT22;23928;47.562;7.508;2022-07-22T08:38:00;24.00;99.90
38118;DHT22;23928;47.562;7.508;2022-07-22T08:40:26;24.00;99.90
38118;DHT22;23928;47.562;7.508;2022-07-22T08:42:52;23.90;99.90
38118;DHT22;23928;47.562;7.508;2022-07-22T08:45:18;24.10;99.90
38118;DHT22;23928;47.562;7.508;2022-07-22T08:47:49;24.00;99.90
38118;DHT22;23928;47.562;7.508;2022-07-22T08:50:15;24.20;99.90
38118;DHT22;23928;47.562;7.508;2022-07-22T08:52:41;24.00;99.90
38118;DHT22;23928;47.562;7.508;2022-07-22T08:55:08;24.20;99.90
38118;DHT22;23928;47.562;7.508;2022-07-22T08:57:34;24.20;99.90
38118;DHT22;23928;47.562;7.508;2022-07-22T09:00:09;24.30;99.90
38118;DHT22;23928;47.562;7.508;2022-07-22T09:02:37;24.70;99.90
38118;DHT22;23928;47.562;7.508;2022-07-22T09:05:05;24.60;99.90
38118;DHT22;23928;47.562;7.508;2022-07-22T09:07:36;24.70;99.90
38118;DHT22;23928;47.562;7.508;2022-07-22T09:10:10;24.60;99.90
38118;DHT22;23928;47.562;7.508;2022-07-22T09:12:56;24.90;99.90
38118;DHT22;23928;47.562;7.508;2022-07-22T09:15:36;25.00;99.90
38118;DHT22;23928;47.562;7.508;2022-07-22T09:18:04;25.20;99.90
38118;DHT22;23928;47.562;7.508;2022-07-22T09:20:31;25.40;99.90
38118;DHT22;23928;47.562;7.508;2022-07-22T09:22:57;25.50;99.90
38118;DHT22;23928;47.562;7.508;2022-07-22T09:30:53;25.70;99.90
38118;DHT22;23928;47.562;7.508;2022-07-22T09:33:19;25.80;99.90
38118;DHT22;23928;47.562;7.508;2022-07-22T09:35:46;25.80;99.90
38118;DHT22;23928;47.562;7.508;2022-07-22T09:38:13;25.90;99.90
38118;DHT22;23928;47.562;7.508;2022-07-22T09:40:44;26.00;99.90
38118;DHT22;23928;47.562;7.508;2022-07-22T09:43:19;26.20;99.90
38118;DHT22;23928;47.562;7.508;2022-07-22T09:45:53;26.30;99.90
38118;DHT22;23928;47.562;7.508;2022-07-22T09:48:21;26.30;99.90
38118;DHT22;23928;47.562;7.508;2022-07-22T09:50:47;26.40;99.90
38118;DHT22;23928;47.562;7.508;2022-07-22T09:53:15;26.40;99.90
38118;DHT22;23928;47.562;7.508;2022-07-22T09:55:41;26.60;99.90
38118;DHT22;23928;47.562;7.508;2022-07-22T09:58:07;26.80;99.90
38118;DHT22;23928;47.562;7.508;2022-07-22T10:00:37;26.50;99.90
38118;DHT22;23928;47.562;7.508;2022-07-22T10:03:06;26.50;99.90
38118;DHT22;23928;47.562;7.508;2022-07-22T10:05:37;26.30;99.90
38118;DHT22;23928;47.562;7.508;2022-07-22T10:08:04;26.30;99.90
38118;DHT22;23928;47.562;7.508;2022-07-22T10:10:32;26.50;99.90
38118;DHT22;23928;47.562;7.508;2022-07-22T10:13:00;26.80;99.90
38118;DHT22;23928;47.562;7.508;2022-07-22T10:15:27;27.00;99.90
38118;DHT22;23928;47.562;7.508;2022-07-22T10:17:55;26.80;99.90
38118;DHT22;23928;47.562;7.508;2022-07-22T10:20:26;26.70;99.90
38118;DHT22;23928;47.562;7.508;2022-07-22T10:23:09;26.60;99.90
38118;DHT22;23928;47.562;7.508;2022-07-22T10:25:56;27.20;99.90
38118;DHT22;23928;47.562;7.508;2022-07-22T10:30:49;27.00;99.90
38118;DHT22;23928;47.562;7.508;2022-07-22T10:33:20;27.20;99.90
38118;DHT22;23928;47.562;7.508;2022-07-22T10:36:00;27.50;99.90
38118;DHT22;23928;47.562;7.508;2022-07-22T10:38:27;27.50;99.90
38118;DHT22;23928;47.562;7.508;2022-07-22T10:41:03;27.70;99.90
38118;DHT22;23928;47.562;7.508;2022-07-22T10:43:51;27.90;99.90
38118;DHT22;23928;47.562;7.508;2022-07-22T10:46:16;27.80;99.90
38118;DHT22;23928;47.562;7.508;2022-07-22T10:53:43;28.00;99.90
38118;DHT22;23928;47.562;7.508;2022-07-22T10:56:27;28.00;99.90
38118;DHT22;23928;47.562;7.508;2022-07-22T10:59:11;28.00;99.90
38118;DHT22;23928;47.562;7.508;2022-07-22T11:01:45;27.90;99.90
38118;DHT22;23928;47.562;7.508;2022-07-22T11:04:20;28.30;99.90
38118;DHT22;23928;47.562;7.508;2022-07-22T11:06:49;28.30;99.90
38118;DHT22;23928;47.562;7.508;2022-07-22T11:09:16;28.40;99.90
38118;DHT22;23928;47.562;7.508;2022-07-22T11:16:38;29.00;99.90
38118;DHT22;23928;47.562;7.508;2022-07-22T11:19:04;29.10;99.90
38118;DHT22;23928;47.562;7.508;2022-07-22T11:21:31;28.90;99.90
38118;DHT22;23928;47.562;7.508;2022-07-22T11:24:00;28.90;99.90
38118;DHT22;23928;47.562;7.508;2022-07-22T11:28:59;29.00;99.90
38118;DHT22;23928;47.562;7.508;2022-07-22T11:31:25;29.00;99.90
38118;DHT22;23928;47.562;7.508;2022-07-22T11:33:51;29.20;99.90
38118;DHT22;23928;47.562;7.508;2022-07-22T11:36:17;29.10;99.90
38118;DHT22;23928;47.562;7.508;2022-07-22T11:38:46;29.40;99.90
38118;DHT22;23928;47.562;7.508;2022-07-22T11:41:14;29.50;99.90
38118;DHT22;23928;47.562;7.508;2022-07-22T11:43:48;30.00;99.90
38118;DHT22;23928;47.562;7.508;2022-07-22T11:46:15;30.00;99.90
38118;DHT22;23928;47.562;7.508;2022-07-22T11:48:42;29.50;99.90
38118;DHT22;23928;47.562;7.508;2022-07-22T11:51:10;29.30;99.90
38118;DHT22;23928;47.562;7.508;2022-07-22T11:53:39;29.90;99.90
38118;DHT22;23928;47.562;7.508;2022-07-22T11:56:07;30.10;99.90
38118;DHT22;23928;47.562;7.508;2022-07-22T11:58:45;30.10;99.90
38118;DHT22;23928;47.562;7.508;2022-07-22T12:01:14;30.40;99.90
38118;DHT22;23928;47.562;7.508;2022-07-22T12:03:45;30.60;99.90
38118;DHT22;23928;47.562;7.508;2022-07-22T12:06:14;30.70;99.90
38118;DHT22;23928;47.562;7.508;2022-07-22T12:08:43;31.10;99.90
38118;DHT22;23928;47.562;7.508;2022-07-22T12:11:14;30.10;99.90
38118;DHT22;23928;47.562;7.508;2022-07-22T12:13:45;30.20;99.90
38118;DHT22;23928;47.562;7.508;2022-07-22T12:16:18;30.20;99.90
38118;DHT22;23928;47.562;7.508;2022-07-22T12:18:54;30.40;99.90
38118;DHT22;23928;47.562;7.508;2022-07-22T12:21:21;30.10;99.90
38118;DHT22;23928;47.562;7.508;2022-07-22T12:24:07;30.40;99.90
38118;DHT22;23928;47.562;7.508;2022-07-22T12:26:42;30.40;99.90
38118;DHT22;23928;47.562;7.508;2022-07-22T12:29:22;30.60;99.90
38118;DHT22;23928;47.562;7.508;2022-07-22T12:31:54;31.10;99.90
38118;DHT22;23928;47.562;7.508;2022-07-22T12:37:27;31.70;99.90
38118;DHT22;23928;47.562;7.508;2022-07-22T12:42:31;31.30;99.90
38118;DHT22;23928;47.562;7.508;2022-07-22T12:45:15;30.80;99.90
38118;DHT22;23928;47.562;7.508;2022-07-22T12:47:54;30.80;99.90
38118;DHT22;23928;47.562;7.508;2022-07-22T12:50:28;31.10;99.90
38118;DHT22;23928;47.562;7.508;2022-07-22T12:53:15;31.00;99.90
38118;DHT22;23928;47.562;7.508;2022-07-22T12:55:48;30.80;99.90
38118;DHT22;23928;47.562;7.508;2022-07-22T12:58:15;30.90;99.90
38118;DHT22;23928;47.562;7.508;2022-07-22T13:00:45;31.10;99.90
38118;DHT22;23928;47.562;7.508;2022-07-22T13:03:10;32.20;99.90
38118;DHT22;23928;47.562;7.508;2022-07-22T13:05:36;32.60;99.90
38118;DHT22;23928;47.562;7.508;2022-07-22T13:08:03;32.70;99.90
38118;DHT22;23928;47.562;7.508;2022-07-22T13:10:29;32.20;99.90
38118;DHT22;23928;47.562;7.508;2022-07-22T13:12:55;31.90;99.90
38118;DHT22;23928;47.562;7.508;2022-07-22T13:15:21;31.80;99.90
38118;DHT22;23928;47.562;7.508;2022-07-22T13:17:48;32.20;99.90
38118;DHT22;23928;47.562;7.508;2022-07-22T13:20:15;32.10;99.90
38118;DHT22;23928;47.562;7.508;2022-07-22T13:22:44;31.60;99.90
38118;DHT22;23928;47.562;7.508;2022-07-22T13:25:11;31.70;99.90
38118;DHT22;23928;47.562;7.508;2022-07-22T13:27:37;31.60;99.90
38118;DHT22;23928;47.562;7.508;2022-07-22T13:30:03;32.30;99.90
38118;DHT22;23928;47.562;7.508;2022-07-22T13:32:29;32.90;99.90
38118;DHT22;23928;47.562;7.508;2022-07-22T13:34:55;32.00;99.90
38118;DHT22;23928;47.562;7.508;2022-07-22T13:37:21;32.30;99.90
38118;DHT22;23928;47.562;7.508;2022-07-22T13:39:47;32.30;99.90
38118;DHT22;23928;47.562;7.508;2022-07-22T13:42:14;31.70;99.90
38118;DHT22;23928;47.562;7.508;2022-07-22T13:44:43;32.20;99.90
38118;DHT22;23928;47.562;7.508;2022-07-22T13:47:09;32.20;99.90
38118;DHT22;23928;47.562;7.508;2022-07-22T13:49:35;31.60;99.90
38118;DHT22;23928;47.562;7.508;2022-07-22T13:52:01;31.60;99.90
38118;DHT22;23928;47.562;7.508;2022-07-22T13:54:27;31.20;99.90
38118;DHT22;23928;47.562;7.508;2022-07-22T13:56:53;31.30;99.90
38118;DHT22;23928;47.562;7.508;2022-07-22T13:59:19;31.80;99.90
38118;DHT22;23928;47.562;7.508;2022-07-22T14:01:44;31.60;99.90
38118;DHT22;23928;47.562;7.508;2022-07-22T14:04:10;31.50;99.90
38118;DHT22;23928;47.562;7.508;2022-07-22T14:06:39;31.70;99.90
38118;DHT22;23928;47.562;7.508;2022-07-22T14:09:04;31.30;99.90
38118;DHT22;23928;47.562;7.508;2022-07-22T14:11:30;31.50;99.90
38118;DHT22;23928;47.562;7.508;2022-07-22T14:13:56;32.00;99.90
38118;DHT22;23928;47.562;7.508;2022-07-22T14:16:21;32.00;99.90
38118;DHT22;23928;47.562;7.508;2022-07-22T14:19:07;31.80;99.90
38118;DHT22;23928;47.562;7.508;2022-07-22T14:21:33;32.00;99.90
38118;DHT22;23928;47.562;7.508;2022-07-22T14:24:00;31.80;99.90
38118;DHT22;23928;47.562;7.508;2022-07-22T14:26:27;31.40;99.90
38118;DHT22;23928;47.562;7.508;2022-07-22T14:28:53;31.50;99.90
38118;DHT22;23928;47.562;7.508;2022-07-22T14:31:19;31.30;99.90
38118;DHT22;23928;47.562;7.508;2022-07-22T14:33:45;31.40;99.90
38118;DHT22;23928;47.562;7.508;2022-07-22T14:36:11;31.40;99.90
38118;DHT22;23928;47.562;7.508;2022-07-22T14:38:36;31.90;99.90
38118;DHT22;23928;47.562;7.508;2022-07-22T14:41:02;32.70;99.90
38118;DHT22;23928;47.562;7.508;2022-07-22T14:43:28;32.50;99.90
38118;DHT22;23928;47.562;7.508;2022-07-22T14:45:54;32.90;99.90
38118;DHT22;23928;47.562;7.508;2022-07-22T14:48:19;32.80;99.90
38118;DHT22;23928;47.562;7.508;2022-07-22T14:50:45;33.20;99.90
38118;DHT22;23928;47.562;7.508;2022-07-22T14:53:12;33.60;99.90
38118;DHT22;23928;47.562;7.508;2022-07-22T14:55:37;33.10;99.90
38118;DHT22;23928;47.562;7.508;2022-07-22T14:58:03;33.10;99.90
38118;DHT22;23928;47.562;7.508;2022-07-22T15:00:29;33.50;99.90
38118;DHT22;23928;47.562;7.508;2022-07-22T15:02:54;32.90;99.90
38118;DHT22;23928;47.562;7.508;2022-07-22T15:05:20;33.10;99.90
38118;DHT22;23928;47.562;7.508;2022-07-22T15:07:46;33.50;99.90
38118;DHT22;23928;47.562;7.508;2022-07-22T15:10:11;32.80;99.90
38118;DHT22;23928;47.562;7.508;2022-07-22T15:12:37;33.40;99.90
38118;DHT22;23928;47.562;7.508;2022-07-22T15:15:03;33.30;99.90
38118;DHT22;23928;47.562;7.508;2022-07-22T15:17:34;32.80;99.90
38118;DHT22;23928;47.562;7.508;2022-07-22T15:20:01;33.00;99.90
38118;DHT22;23928;47.562;7.508;2022-07-22T15:22:26;33.20;99.90
38118;DHT22;23928;47.562;7.508;2022-07-22T15:24:53;32.60;99.90
38118;DHT22;23928;47.562;7.508;2022-07-22T15:27:19;32.90;99.90
38118;DHT22;23928;47.562;7.508;2022-07-22T15:29:45;32.80;99.90
38118;DHT22;23928;47.562;7.508;2022-07-22T15:32:16;33.30;99.90
38118;DHT22;23928;47.562;7.508;2022-07-22T15:34:42;33.90;99.90
38118;DHT22;23928;47.562;7.508;2022-07-22T15:37:08;34.10;99.90
38118;DHT22;23928;47.562;7.508;2022-07-22T15:39:33;34.80;99.90
38118;DHT22;23928;47.562;7.508;2022-07-22T15:41:59;33.90;99.90
38118;DHT22;23928;47.562;7.508;2022-07-22T15:44:25;34.40;99.90
38118;DHT22;23928;47.562;7.508;2022-07-22T15:46:51;33.80;99.90
38118;DHT22;23928;47.562;7.508;2022-07-22T15:49:17;33.10;99.90
38118;DHT22;23928;47.562;7.508;2022-07-22T15:51:43;33.40;99.90
38118;DHT22;23928;47.562;7.508;2022-07-22T15:54:08;33.50;99.90
38118;DHT22;23928;47.562;7.508;2022-07-22T15:56:34;33.40;99.90